Time;durP1;ratioP1;P1;durP2;ratioP2;P2;SDS_P1;SDS_P2;PMS_P1;PMS_P2;Temp;Humidity;BMP_temperature;BMP_pressure;BME280_temperature;BME280_humidity;BME280_pressure;Samples;Min_cycle;Max_cycle;Signal;HPM_P1;HPM_P2
2024/01/07 00:00:35;;;;;;;;;;;5.10;99.90;;;;;;5011074;28;19975;-89
2024/01/07 00:03:00;;;;;;;;;;;5.10;99.90;;;;;;5011189;28;19928;-88
2024/01/07 00:05:26;;;;;;;;;;;5.00;99.90;;;;;;5011383;28;19950;-89
2024/01/07 00:07:51;;;;;;;;;;;5.00;99.90;;;;;;5011589;28;19929;-88
2024/01/07 00:10:17;;;;;;;;;;;4.90;99.90;;;;;;5010274;28;19949;-88
2024/01/07 00:12:43;;;;;;;;;;;4.70;99.90;;;;;;5011960;28;19926;-89
2024/01/07 00:15:09;;;;;;;;;;;4.60;99.90;;;;;;5011140;28;20008;-89
2024/01/07 00:17:34;;;;;;;;;;;4.60;99.90;;;;;;5010262;28;20427;-89
2024/01/07 00:20:00;;;;;;;;;;;4.50;99.90;;;;;;5010787;28;19925;-90
2024/01/07 00:22:25;;;;;;;;;;;4.50;99.90;;;;;;5006275;28;19928;-89
2024/01/07 00:24:51;;;;;;;;;;;4.30;99.90;;;;;;5010415;28;19932;-90
2024/01/07 00:27:17;;;;;;;;;;;4.20;99.90;;;;;;5009752;28;19951;-89
2024/01/07 00:29:42;;;;;;;;;;;4.10;99.90;;;;;;5005523;28;19931;-89
2024/01/07 00:32:08;;;;;;;;;;;4.00;99.90;;;;;;5010995;28;19938;-89
2024/01/07 00:34:33;;;;;;;;;;;4.00;99.90;;;;;;5004268;28;19943;-87
2024/01/07 00:36:59;;;;;;;;;;;3.90;99.90;;;;;;5000014;28;19955;-89
2024/01/07 00:39:24;;;;;;;;;;;4.00;99.90;;;;;;4999603;28;19935;-89
2024/01/07 00:41:50;;;;;;;;;;;3.90;99.90;;;;;;5001798;28;19918;-89
2024/01/07 00:44:15;;;;;;;;;;;3.90;99.90;;;;;;5005267;28;20364;-89
2024/01/07 00:46:41;;;;;;;;;;;3.90;99.90;;;;;;5005348;28;20523;-89
2024/01/07 00:49:06;;;;;;;;;;;3.90;99.90;;;;;;5010248;28;20024;-87
2024/01/07 00:51:33;;;;;;;;;;;3.90;99.90;;;;;;4990919;28;19953;-88
2024/01/07 00:53:58;;;;;;;;;;;3.90;99.90;;;;;;5003785;28;20305;-89
2024/01/07 00:56:25;;;;;;;;;;;3.90;99.90;;;;;;5007218;28;19951;-90
2024/01/07 00:58:51;;;;;;;;;;;3.80;99.90;;;;;;5007903;28;20021;-88
2024/01/07 01:01:16;;;;;;;;;;;3.80;99.90;;;;;;5012468;28;19966;-89
2024/01/07 01:03:42;;;;;;;;;;;3.90;99.90;;;;;;5023582;28;19916;-88
2024/01/07 01:06:07;;;;;;;;;;;3.90;99.90;;;;;;5022953;28;19925;-89
2024/01/07 01:08:33;;;;;;;;;;;3.90;99.90;;;;;;5028352;28;20119;-89
2024/01/07 01:10:59;;;;;;;;;;;3.80;99.90;;;;;;5029177;28;19914;-89
2024/01/07 01:13:24;;;;;;;;;;;3.70;99.90;;;;;;5025969;28;19957;-90
2024/01/07 01:15:50;;;;;;;;;;;3.60;99.90;;;;;;5015776;28;20336;-89
2024/01/07 01:18:15;;;;;;;;;;;3.50;99.90;;;;;;5018883;28;19931;-88
2024/01/07 01:20:41;;;;;;;;;;;3.60;99.90;;;;;;5011403;28;19942;-89
2024/01/07 01:23:06;;;;;;;;;;;3.70;99.90;;;;;;5006825;28;20302;-89
2024/01/07 01:25:32;;;;;;;;;;;3.60;99.90;;;;;;5007205;28;20039;-90
2024/01/07 01:27:58;;;;;;;;;;;3.60;99.90;;;;;;5008081;28;19997;-89
2024/01/07 01:30:49;;;;;;;;;;;3.50;99.90;;;;;;5031147;28;19950;-90
2024/01/07 01:33:14;;;;;;;;;;;3.50;99.90;;;;;;5027855;28;20022;-89
2024/01/07 01:35:40;;;;;;;;;;;3.40;99.90;;;;;;5028920;28;20040;-89
2024/01/07 01:38:05;;;;;;;;;;;3.30;99.90;;;;;;5031363;28;20256;-88
2024/01/07 01:40:31;;;;;;;;;;;3.30;99.90;;;;;;5028350;28;19928;-89
2024/01/07 01:42:57;;;;;;;;;;;3.20;99.90;;;;;;5030441;28;19916;-90
2024/01/07 01:45:22;;;;;;;;;;;3.10;99.90;;;;;;5027578;28;20397;-89
2024/01/07 01:47:48;;;;;;;;;;;3.10;99.90;;;;;;5030278;28;19998;-89
2024/01/07 01:50:14;;;;;;;;;;;3.10;99.90;;;;;;5028205;28;20549;-89
2024/01/07 01:52:40;;;;;;;;;;;3.00;99.90;;;;;;5029919;28;19992;-90
2024/01/07 01:55:05;;;;;;;;;;;3.00;99.90;;;;;;5030085;28;20735;-89
2024/01/07 01:57:33;;;;;;;;;;;3.00;99.90;;;;;;5029693;28;19921;-89
2024/01/07 02:00:04;;;;;;;;;;;2.90;99.90;;;;;;5027461;28;19933;-90
2024/01/07 02:02:31;;;;;;;;;;;2.80;99.90;;;;;;5029032;28;19921;-89
2024/01/07 02:04:57;;;;;;;;;;;2.80;99.90;;;;;;5027953;28;19955;-89
2024/01/07 02:07:24;;;;;;;;;;;2.70;99.90;;;;;;5025377;28;20298;-89
2024/01/07 02:09:49;;;;;;;;;;;2.70;99.90;;;;;;5028099;28;19937;-89
2024/01/07 02:12:15;;;;;;;;;;;2.70;99.90;;;;;;5024145;28;19921;-89
2024/01/07 02:14:40;;;;;;;;;;;2.70;99.90;;;;;;5023895;28;20165;-89
2024/01/07 02:17:06;;;;;;;;;;;2.70;99.90;;;;;;5028324;28;19991;-88
2024/01/07 02:19:31;;;;;;;;;;;2.60;99.90;;;;;;5025752;28;19924;-90
2024/01/07 02:21:57;;;;;;;;;;;2.60;99.90;;;;;;5028065;28;19926;-88
2024/01/07 02:24:22;;;;;;;;;;;2.60;99.90;;;;;;5027068;28;19917;-88
2024/01/07 02:26:48;;;;;;;;;;;2.50;99.90;;;;;;5029299;28;19947;-89
2024/01/07 02:29:14;;;;;;;;;;;2.60;99.90;;;;;;5027526;28;19953;-89
2024/01/07 02:31:39;;;;;;;;;;;2.50;99.90;;;;;;5032455;28;19924;-89
2024/01/07 02:34:05;;;;;;;;;;;2.50;99.90;;;;;;5027684;28;19924;-89
2024/01/07 02:36:30;;;;;;;;;;;2.40;99.90;;;;;;5029277;28;20017;-88
2024/01/07 02:38:56;;;;;;;;;;;2.40;99.90;;;;;;5042722;28;19942;-90
2024/01/07 02:41:25;;;;;;;;;;;2.40;99.90;;;;;;5047109;28;19914;-88
2024/01/07 02:43:51;;;;;;;;;;;2.30;99.90;;;;;;5031722;28;19982;-89
2024/01/07 02:46:16;;;;;;;;;;;2.30;99.90;;;;;;5025338;28;20153;-89
2024/01/07 02:48:42;;;;;;;;;;;2.30;99.90;;;;;;5030630;28;20376;-89
2024/01/07 02:51:08;;;;;;;;;;;2.30;99.90;;;;;;5027304;28;20357;-89
2024/01/07 02:53:33;;;;;;;;;;;2.30;99.90;;;;;;5028819;28;20000;-89
2024/01/07 02:55:59;;;;;;;;;;;2.30;99.90;;;;;;5038422;28;19949;-89
2024/01/07 02:58:25;;;;;;;;;;;2.30;99.90;;;;;;5036499;28;20031;-89
2024/01/07 03:00:50;;;;;;;;;;;2.20;99.90;;;;;;5025579;28;20038;-88
2024/01/07 03:03:16;;;;;;;;;;;2.20;99.90;;;;;;5026208;28;19934;-88
2024/01/07 03:05:41;;;;;;;;;;;2.20;99.90;;;;;;5027317;28;20582;-89
2024/01/07 03:08:07;;;;;;;;;;;2.20;99.90;;;;;;5027728;28;19943;-89
2024/01/07 03:10:33;;;;;;;;;;;2.10;99.90;;;;;;5023063;28;19926;-90
2024/01/07 03:12:59;;;;;;;;;;;2.10;99.90;;;;;;5038977;28;21112;-89
2024/01/07 03:15:25;;;;;;;;;;;2.10;99.90;;;;;;5053104;28;19927;-89
2024/01/07 03:17:50;;;;;;;;;;;2.10;99.90;;;;;;5051003;28;19969;-88
2024/01/07 03:20:16;;;;;;;;;;;2.10;99.90;;;;;;5050921;28;19938;-88
2024/01/07 03:22:41;;;;;;;;;;;2.10;99.90;;;;;;5045713;28;19937;-89
2024/01/07 03:25:07;;;;;;;;;;;2.10;99.90;;;;;;5044323;28;19955;-88
2024/01/07 03:27:33;;;;;;;;;;;2.00;99.90;;;;;;5039762;28;20456;-88
2024/01/07 03:29:58;;;;;;;;;;;2.00;99.90;;;;;;5031974;28;20001;-88
2024/01/07 03:32:24;;;;;;;;;;;2.00;99.90;;;;;;5029234;28;19925;-89
2024/01/07 03:34:50;;;;;;;;;;;2.00;99.90;;;;;;5029182;28;19977;-88
2024/01/07 03:37:17;;;;;;;;;;;2.00;99.90;;;;;;5029103;28;19942;-88
2024/01/07 03:39:42;;;;;;;;;;;1.90;99.90;;;;;;5025194;28;19928;-89
2024/01/07 03:42:11;;;;;;;;;;;1.90;99.90;;;;;;5024226;28;19931;-90
2024/01/07 03:44:38;;;;;;;;;;;1.90;99.90;;;;;;5030118;28;19919;-89
2024/01/07 03:47:03;;;;;;;;;;;1.80;99.90;;;;;;5026846;28;19909;-89
2024/01/07 03:49:29;;;;;;;;;;;1.80;99.90;;;;;;5028498;28;19995;-89
2024/01/07 03:51:54;;;;;;;;;;;1.80;99.90;;;;;;5026921;28;19944;-91
2024/01/07 03:54:20;;;;;;;;;;;1.80;99.90;;;;;;5033163;28;19954;-89
2024/01/07 03:56:46;;;;;;;;;;;1.80;99.90;;;;;;5025684;28;20398;-90
2024/01/07 03:59:11;;;;;;;;;;;1.70;99.90;;;;;;5027512;28;19920;-90
2024/01/07 04:01:37;;;;;;;;;;;1.70;99.90;;;;;;5026383;28;20331;-89
2024/01/07 04:04:03;;;;;;;;;;;1.70;99.90;;;;;;5025958;28;20411;-91
2024/01/07 04:06:28;;;;;;;;;;;1.70;99.90;;;;;;5026848;28;19961;-89
2024/01/07 04:08:54;;;;;;;;;;;1.70;99.90;;;;;;5027290;28;20313;-89
2024/01/07 04:11:19;;;;;;;;;;;1.70;99.90;;;;;;5036760;28;19931;-89
2024/01/07 04:13:45;;;;;;;;;;;1.60;99.90;;;;;;5043961;28;19931;-89
2024/01/07 04:16:18;;;;;;;;;;;1.60;99.90;;;;;;5036003;28;19921;-90
2024/01/07 04:18:45;;;;;;;;;;;1.60;99.90;;;;;;5034261;28;19938;-89
2024/01/07 04:21:11;;;;;;;;;;;1.60;99.90;;;;;;5029722;28;19982;-89
2024/01/07 04:23:36;;;;;;;;;;;1.60;99.90;;;;;;5031412;28;19928;-89
2024/01/07 04:26:02;;;;;;;;;;;1.60;99.90;;;;;;5035210;28;20345;-89
2024/01/07 04:28:27;;;;;;;;;;;1.60;99.90;;;;;;5032228;28;19920;-89
2024/01/07 04:30:53;;;;;;;;;;;1.60;99.90;;;;;;5031132;28;20021;-90
2024/01/07 04:33:18;;;;;;;;;;;1.60;99.90;;;;;;5031241;28;20009;-89
2024/01/07 04:35:44;;;;;;;;;;;1.60;99.90;;;;;;5032319;28;19942;-89
2024/01/07 04:38:10;;;;;;;;;;;1.60;99.90;;;;;;5031199;28;19953;-89
2024/01/07 04:40:35;;;;;;;;;;;1.60;99.90;;;;;;5029606;28;19947;-89
2024/01/07 04:43:01;;;;;;;;;;;1.60;99.90;;;;;;5025235;28;19936;-89
2024/01/07 04:45:26;;;;;;;;;;;1.50;99.90;;;;;;5034333;28;20399;-89
2024/01/07 04:47:52;;;;;;;;;;;1.50;99.90;;;;;;5030285;28;19909;-90
2024/01/07 04:50:19;;;;;;;;;;;1.50;99.90;;;;;;5033302;28;19926;-89
2024/01/07 04:52:46;;;;;;;;;;;1.50;99.90;;;;;;5033881;28;19919;-88
2024/01/07 04:55:11;;;;;;;;;;;1.50;99.90;;;;;;5035444;28;20013;-89
2024/01/07 04:57:37;;;;;;;;;;;1.40;99.90;;;;;;5035353;28;19956;-89
2024/01/07 05:00:03;;;;;;;;;;;1.40;99.90;;;;;;5032270;28;19932;-89
2024/01/07 05:02:29;;;;;;;;;;;1.40;99.90;;;;;;5031146;28;20349;-88
2024/01/07 05:04:55;;;;;;;;;;;1.40;99.90;;;;;;5027747;28;19968;-87
2024/01/07 05:07:20;;;;;;;;;;;1.40;99.90;;;;;;5034120;28;19920;-90
2024/01/07 05:09:46;;;;;;;;;;;1.40;99.90;;;;;;5032137;28;19951;-89
2024/01/07 05:12:11;;;;;;;;;;;1.30;99.90;;;;;;5030337;28;19916;-90
2024/01/07 05:14:37;;;;;;;;;;;1.30;99.90;;;;;;5030081;28;19973;-90
2024/01/07 05:17:03;;;;;;;;;;;1.40;99.90;;;;;;5029858;28;20432;-90
2024/01/07 05:19:29;;;;;;;;;;;1.40;99.90;;;;;;5028755;28;19949;-87
2024/01/07 05:21:55;;;;;;;;;;;1.30;99.90;;;;;;5032826;28;19972;-87
2024/01/07 05:24:20;;;;;;;;;;;1.40;99.90;;;;;;5037415;28;19923;-90
2024/01/07 05:26:46;;;;;;;;;;;1.40;99.90;;;;;;5053148;28;19942;-91
2024/01/07 05:29:12;;;;;;;;;;;1.30;99.90;;;;;;5050958;28;19958;-89
2024/01/07 05:31:38;;;;;;;;;;;1.30;99.90;;;;;;5054190;28;19931;-90
2024/01/07 05:34:03;;;;;;;;;;;1.30;99.90;;;;;;5048902;28;20002;-90
2024/01/07 05:36:29;;;;;;;;;;;1.30;99.90;;;;;;5053472;28;19970;-90
2024/01/07 05:38:54;;;;;;;;;;;1.20;99.90;;;;;;5035729;28;19927;-90
2024/01/07 05:41:20;;;;;;;;;;;1.20;99.90;;;;;;5032000;28;20454;-90
2024/01/07 05:43:46;;;;;;;;;;;1.20;99.90;;;;;;5030538;28;19925;-90
2024/01/07 05:46:12;;;;;;;;;;;1.20;99.90;;;;;;5032439;28;20019;-89
2024/01/07 05:48:46;;;;;;;;;;;1.20;99.90;;;;;;5032387;28;19932;-90
2024/01/07 05:51:11;;;;;;;;;;;1.20;99.90;;;;;;5032738;28;19923;-89
2024/01/07 05:53:37;;;;;;;;;;;1.20;99.90;;;;;;5032475;28;20301;-90
2024/01/07 05:56:03;;;;;;;;;;;1.20;99.90;;;;;;5031063;28;21435;-90
2024/01/07 05:58:29;;;;;;;;;;;1.20;99.90;;;;;;5033465;28;19965;-91
2024/01/07 06:00:54;;;;;;;;;;;1.20;99.90;;;;;;5031732;28;20395;-87
2024/01/07 06:03:20;;;;;;;;;;;1.20;99.90;;;;;;5030259;28;19920;-89
2024/01/07 06:05:45;;;;;;;;;;;1.20;99.90;;;;;;5030571;28;19943;-89
2024/01/07 06:08:11;;;;;;;;;;;1.20;99.90;;;;;;5033985;28;19935;-89
2024/01/07 06:10:37;;;;;;;;;;;1.20;99.90;;;;;;5037045;28;19930;-89
2024/01/07 06:13:03;;;;;;;;;;;1.20;99.90;;;;;;5048886;28;19988;-90
2024/01/07 06:15:28;;;;;;;;;;;1.20;99.90;;;;;;5046577;28;20041;-90
2024/01/07 06:17:54;;;;;;;;;;;1.20;99.90;;;;;;5032099;28;19959;-90
2024/01/07 06:20:19;;;;;;;;;;;1.20;99.90;;;;;;5030506;28;20061;-89
2024/01/07 06:22:45;;;;;;;;;;;1.20;99.90;;;;;;5033325;28;19935;-89
2024/01/07 06:25:10;;;;;;;;;;;1.20;99.90;;;;;;5032879;28;19925;-89
2024/01/07 06:27:36;;;;;;;;;;;1.30;99.90;;;;;;5031947;28;19917;-90
2024/01/07 06:30:02;;;;;;;;;;;1.30;99.90;;;;;;5033399;28;19993;-91
2024/01/07 06:32:32;;;;;;;;;;;1.30;99.90;;;;;;5030077;28;19941;-91
2024/01/07 06:34:57;;;;;;;;;;;1.20;99.90;;;;;;5025459;28;19924;-90
2024/01/07 06:37:25;;;;;;;;;;;1.20;99.90;;;;;;5045065;28;19955;-88
2024/01/07 06:39:50;;;;;;;;;;;1.20;99.90;;;;;;5049413;28;19924;-91
2024/01/07 06:42:16;;;;;;;;;;;1.20;99.90;;;;;;5033595;28;19959;-91
2024/01/07 06:44:42;;;;;;;;;;;1.10;99.90;;;;;;5032600;28;19922;-89
2024/01/07 06:47:07;;;;;;;;;;;1.10;99.90;;;;;;5027277;28;19971;-89
2024/01/07 06:49:33;;;;;;;;;;;1.10;99.90;;;;;;5029350;28;19931;-90
2024/01/07 06:51:58;;;;;;;;;;;1.10;99.90;;;;;;5028546;28;20125;-89
2024/01/07 06:54:24;;;;;;;;;;;1.30;99.90;;;;;;5046852;28;20023;-90
2024/01/07 06:56:50;;;;;;;;;;;1.30;99.90;;;;;;5045589;28;19938;-89
2024/01/07 06:59:15;;;;;;;;;;;1.40;99.90;;;;;;5045856;28;19917;-89
2024/01/07 07:01:41;;;;;;;;;;;1.50;99.90;;;;;;5044251;28;19909;-91
2024/01/07 07:04:06;;;;;;;;;;;1.50;99.90;;;;;;5033845;28;20244;-89
2024/01/07 07:06:32;;;;;;;;;;;1.50;99.90;;;;;;5031234;28;20037;-91
2024/01/07 07:08:57;;;;;;;;;;;1.50;99.90;;;;;;5035182;28;20272;-89
2024/01/07 07:11:23;;;;;;;;;;;1.50;99.90;;;;;;5032949;28;20410;-88
2024/01/07 07:13:48;;;;;;;;;;;1.40;99.90;;;;;;5039086;28;19954;-89
2024/01/07 07:16:14;;;;;;;;;;;1.40;99.90;;;;;;5034005;28;20039;-89
2024/01/07 07:18:39;;;;;;;;;;;1.40;99.90;;;;;;5029359;28;19943;-90
2024/01/07 07:21:05;;;;;;;;;;;1.40;99.90;;;;;;5027763;28;19932;-88
2024/01/07 07:23:31;;;;;;;;;;;1.40;99.90;;;;;;5028499;28;20400;-89
2024/01/07 07:25:56;;;;;;;;;;;1.40;99.90;;;;;;5031159;28;20463;-89
2024/01/07 07:28:22;;;;;;;;;;;1.40;99.90;;;;;;5033851;28;19973;-89
2024/01/07 07:30:47;;;;;;;;;;;1.40;99.90;;;;;;5034115;28;19933;-90
2024/01/07 07:33:13;;;;;;;;;;;1.40;99.90;;;;;;5031991;28;19950;-91
2024/01/07 07:35:40;;;;;;;;;;;1.30;99.90;;;;;;5038462;28;19947;-90
2024/01/07 07:38:12;;;;;;;;;;;1.30;99.90;;;;;;5045716;28;19956;-90
2024/01/07 07:40:37;;;;;;;;;;;1.20;99.90;;;;;;5050382;28;19936;-90
2024/01/07 07:43:03;;;;;;;;;;;1.00;99.90;;;;;;5052862;28;19937;-89
2024/01/07 07:45:29;;;;;;;;;;;0.90;99.90;;;;;;5053888;28;19930;-90
2024/01/07 07:47:54;;;;;;;;;;;0.90;99.90;;;;;;5049789;28;19922;-91
2024/01/07 07:50:21;;;;;;;;;;;0.70;99.90;;;;;;5050328;28;19920;-89
2024/01/07 07:52:47;;;;;;;;;;;0.80;99.90;;;;;;5049862;28;19921;-89
2024/01/07 07:55:12;;;;;;;;;;;0.70;99.90;;;;;;5041766;28;20870;-89
2024/01/07 07:57:38;;;;;;;;;;;0.60;99.90;;;;;;5040177;28;19982;-90
2024/01/07 08:00:05;;;;;;;;;;;0.70;99.90;;;;;;5041740;28;19960;-90
2024/01/07 08:02:30;;;;;;;;;;;0.70;99.90;;;;;;5043395;28;19949;-90
2024/01/07 08:04:56;;;;;;;;;;;0.70;99.90;;;;;;5031893;28;19927;-90
2024/01/07 08:07:21;;;;;;;;;;;0.70;99.90;;;;;;5034749;28;20000;-89
2024/01/07 08:09:47;;;;;;;;;;;0.70;99.90;;;;;;5036907;28;19990;-89
2024/01/07 08:12:12;;;;;;;;;;;0.70;99.90;;;;;;5034288;28;19941;-89
2024/01/07 08:14:40;;;;;;;;;;;0.60;99.90;;;;;;5031738;28;19982;-90
2024/01/07 08:17:07;;;;;;;;;;;0.60;99.90;;;;;;5029148;28;20010;-91
2024/01/07 08:19:32;;;;;;;;;;;0.60;99.90;;;;;;5029132;28;19927;-90
2024/01/07 08:21:58;;;;;;;;;;;0.60;99.90;;;;;;5027617;28;19926;-90
2024/01/07 08:24:23;;;;;;;;;;;0.60;99.90;;;;;;5028729;28;19947;-90
2024/01/07 08:26:49;;;;;;;;;;;0.50;99.90;;;;;;5031677;28;19954;-90
2024/01/07 08:29:14;;;;;;;;;;;0.40;99.90;;;;;;5030767;28;20037;-89
2024/01/07 08:31:42;;;;;;;;;;;0.30;99.90;;;;;;5031008;28;20028;-90
2024/01/07 08:34:07;;;;;;;;;;;0.40;99.90;;;;;;5027452;28;19927;-90
2024/01/07 08:36:33;;;;;;;;;;;0.40;99.90;;;;;;5031339;28;19966;-90
2024/01/07 08:39:03;;;;;;;;;;;0.50;99.90;;;;;;5036336;28;19930;-91
2024/01/07 08:41:28;;;;;;;;;;;0.50;99.90;;;;;;5038415;28;19935;-90
2024/01/07 08:43:54;;;;;;;;;;;0.60;99.90;;;;;;5035093;28;20446;-91
2024/01/07 08:46:21;;;;;;;;;;;0.70;99.90;;;;;;5032321;28;19986;-92
2024/01/07 08:48:47;;;;;;;;;;;0.90;99.90;;;;;;5029378;28;19933;-91
2024/01/07 08:51:13;;;;;;;;;;;0.90;99.90;;;;;;5031867;28;19942;-92
2024/01/07 08:53:39;;;;;;;;;;;1.10;99.90;;;;;;5033324;28;19936;-89
2024/01/07 08:56:06;;;;;;;;;;;1.20;99.90;;;;;;5037591;28;19943;-91
2024/01/07 08:58:32;;;;;;;;;;;1.40;99.90;;;;;;5035005;28;19983;-91
2024/01/07 09:00:57;;;;;;;;;;;1.50;99.90;;;;;;5037830;28;19957;-90
2024/01/07 09:03:23;;;;;;;;;;;1.60;99.90;;;;;;5036373;28;20340;-90
2024/01/07 09:05:48;;;;;;;;;;;1.70;99.90;;;;;;5036601;28;20009;-89
2024/01/07 09:08:14;;;;;;;;;;;1.80;99.90;;;;;;5034055;28;19919;-89
2024/01/07 09:10:40;;;;;;;;;;;2.00;99.90;;;;;;5040713;28;20192;-90
2024/01/07 09:13:05;;;;;;;;;;;2.10;99.90;;;;;;5050225;28;19952;-89
2024/01/07 09:15:31;;;;;;;;;;;2.20;99.90;;;;;;5051388;28;19949;-91
2024/01/07 09:17:57;;;;;;;;;;;2.30;99.90;;;;;;5047494;28;19953;-89
2024/01/07 09:20:23;;;;;;;;;;;2.50;99.90;;;;;;5043961;28;20027;-88
2024/01/07 09:22:48;;;;;;;;;;;2.60;99.90;;;;;;5028629;28;20040;-90
2024/01/07 09:25:14;;;;;;;;;;;2.80;99.90;;;;;;5034117;28;21024;-90
2024/01/07 09:27:39;;;;;;;;;;;3.00;99.90;;;;;;5032738;28;19927;-89
2024/01/07 09:30:05;;;;;;;;;;;4.40;99.90;;;;;;5030325;28;19950;-91
2024/01/07 09:32:31;;;;;;;;;;;6.70;99.90;;;;;;5029843;28;19924;-91
2024/01/07 09:34:57;;;;;;;;;;;8.70;99.90;;;;;;5036068;28;19968;-90
2024/01/07 09:37:23;;;;;;;;;;;10.50;89.50;;;;;;5035841;28;19950;-91
2024/01/07 09:39:53;;;;;;;;;;;12.00;70.80;;;;;;5032215;28;20017;-90
2024/01/07 09:42:18;;;;;;;;;;;13.50;59.60;;;;;;5030640;28;20508;-89
2024/01/07 09:44:44;;;;;;;;;;;14.80;53.30;;;;;;5031605;28;19952;-90
2024/01/07 09:47:10;;;;;;;;;;;15.60;48.90;;;;;;5030986;28;19933;-91
2024/01/07 09:49:36;;;;;;;;;;;16.30;46.70;;;;;;5033986;28;19909;-90
2024/01/07 09:52:03;;;;;;;;;;;17.00;44.20;;;;;;5034338;28;19913;-90
2024/01/07 09:54:29;;;;;;;;;;;17.40;43.60;;;;;;5033417;28;19932;-89
2024/01/07 09:56:57;;;;;;;;;;;17.00;42.20;;;;;;5050569;28;19938;-90
2024/01/07 09:59:23;;;;;;;;;;;16.00;43.20;;;;;;5054668;28;20003;-90
2024/01/07 10:01:50;;;;;;;;;;;14.20;47.20;;;;;;5050140;28;19940;-89
2024/01/07 10:04:15;;;;;;;;;;;14.40;49.40;;;;;;5053784;28;19927;-90
2024/01/07 10:06:41;;;;;;;;;;;15.10;47.80;;;;;;5053965;28;19969;-90
2024/01/07 10:09:06;;;;;;;;;;;15.90;45.40;;;;;;5047260;28;19943;-90
2024/01/07 10:11:32;;;;;;;;;;;16.80;43.40;;;;;;5040557;28;20025;-90
2024/01/07 10:13:58;;;;;;;;;;;17.50;41.50;;;;;;5029507;28;19967;-90
2024/01/07 10:16:23;;;;;;;;;;;17.80;40.30;;;;;;5029514;28;21051;-90
2024/01/07 10:18:49;;;;;;;;;;;18.00;40.00;;;;;;5029704;28;20298;-89
2024/01/07 10:21:15;;;;;;;;;;;17.80;39.80;;;;;;5030758;28;19940;-91
2024/01/07 10:23:41;;;;;;;;;;;17.30;41.00;;;;;;5030776;28;19929;-90
2024/01/07 10:26:06;;;;;;;;;;;17.60;40.20;;;;;;5036295;28;19933;-88
2024/01/07 10:28:32;;;;;;;;;;;17.90;40.30;;;;;;5034592;28;19990;-90
2024/01/07 10:30:58;;;;;;;;;;;18.30;38.70;;;;;;5032421;28;20387;-89
2024/01/07 10:33:23;;;;;;;;;;;18.50;37.80;;;;;;5034342;28;20404;-88
2024/01/07 10:35:53;;;;;;;;;;;18.70;38.10;;;;;;5030188;28;20001;-89
2024/01/07 10:38:19;;;;;;;;;;;18.40;37.80;;;;;;5029605;28;20474;-89
2024/01/07 10:40:50;;;;;;;;;;;18.60;37.80;;;;;;5033108;28;19930;-90
2024/01/07 10:43:16;;;;;;;;;;;18.80;38.30;;;;;;5031637;28;19919;-90
2024/01/07 10:45:42;;;;;;;;;;;19.20;36.40;;;;;;5026147;28;20414;-89
2024/01/07 10:48:10;;;;;;;;;;;19.90;35.90;;;;;;5030324;28;19977;-89
2024/01/07 10:50:35;;;;;;;;;;;20.60;34.80;;;;;;5025140;28;19936;-89
2024/01/07 10:53:07;;;;;;;;;;;20.80;33.90;;;;;;5029567;28;19967;-89
2024/01/07 10:55:35;;;;;;;;;;;21.00;32.70;;;;;;5024669;28;20050;-89
2024/01/07 10:58:02;;;;;;;;;;;21.40;32.60;;;;;;5024484;28;19948;-90
2024/01/07 11:00:29;;;;;;;;;;;21.60;32.10;;;;;;5022906;28;20455;-90
2024/01/07 11:02:56;;;;;;;;;;;22.00;32.40;;;;;;5021320;28;19932;-89
2024/01/07 11:05:42;;;;;;;;;;;21.80;31.20;;;;;;5026187;28;19984;-88
2024/01/07 11:08:13;;;;;;;;;;;22.30;31.30;;;;;;5033316;28;19966;-89
2024/01/07 11:10:41;;;;;;;;;;;22.40;31.20;;;;;;5030102;28;20136;-89
2024/01/07 11:13:07;;;;;;;;;;;22.00;30.70;;;;;;5028278;28;20047;-89
2024/01/07 11:15:51;;;;;;;;;;;22.50;31.90;;;;;;5025084;28;20401;-90
2024/01/07 11:18:18;;;;;;;;;;;22.80;31.30;;;;;;5027838;28;20259;-89
2024/01/07 11:20:44;;;;;;;;;;;22.50;30.00;;;;;;5026382;28;19989;-90
2024/01/07 11:23:30;;;;;;;;;;;22.40;30.00;;;;;;5028679;28;20384;-88
2024/01/07 11:25:57;;;;;;;;;;;22.60;30.90;;;;;;5027797;28;20031;-89
2024/01/07 11:28:42;;;;;;;;;;;22.70;29.90;;;;;;5025657;28;19981;-89
2024/01/07 11:31:08;;;;;;;;;;;22.70;30.20;;;;;;5023578;28;20055;-89
2024/01/07 11:33:36;;;;;;;;;;;22.90;29.90;;;;;;5036496;28;19924;-88
2024/01/07 11:36:03;;;;;;;;;;;23.10;29.70;;;;;;5036797;28;19944;-88
2024/01/07 11:38:29;;;;;;;;;;;23.20;30.00;;;;;;5038940;28;19939;-87
2024/01/07 11:40:56;;;;;;;;;;;23.30;30.00;;;;;;5032938;28;19942;-89
2024/01/07 11:43:21;;;;;;;;;;;23.60;29.90;;;;;;5032336;28;19959;-89
2024/01/07 11:45:49;;;;;;;;;;;23.80;29.20;;;;;;5028333;28;19942;-88
2024/01/07 11:48:15;;;;;;;;;;;23.70;29.30;;;;;;5028585;28;19933;-88
2024/01/07 11:50:41;;;;;;;;;;;23.80;28.80;;;;;;5030150;28;19931;-89
2024/01/07 11:53:07;;;;;;;;;;;24.10;29.00;;;;;;5029102;28;19934;-88
2024/01/07 11:55:34;;;;;;;;;;;24.30;29.10;;;;;;5031773;28;19966;-89
2024/01/07 11:58:02;;;;;;;;;;;24.70;28.10;;;;;;5029231;28;20007;-88
2024/01/07 12:00:30;;;;;;;;;;;24.60;28.20;;;;;;5028358;28;19932;-88
2024/01/07 12:02:56;;;;;;;;;;;24.80;28.00;;;;;;5029833;28;20401;-89
2024/01/07 12:05:21;;;;;;;;;;;24.10;28.30;;;;;;5028821;28;20039;-89
2024/01/07 12:07:47;;;;;;;;;;;23.60;28.30;;;;;;5028146;28;20356;-89
2024/01/07 12:10:12;;;;;;;;;;;22.60;29.90;;;;;;5024051;28;19938;-89
2024/01/07 12:12:39;;;;;;;;;;;22.10;30.10;;;;;;5031752;28;20003;-88
2024/01/07 12:15:05;;;;;;;;;;;20.60;30.70;;;;;;5049068;28;19943;-89
2024/01/07 12:17:31;;;;;;;;;;;19.70;33.60;;;;;;5050438;28;19945;-87
2024/01/07 12:19:56;;;;;;;;;;;18.40;34.50;;;;;;5049281;28;19938;-87
2024/01/07 12:22:22;;;;;;;;;;;17.10;37.20;;;;;;5050908;28;19917;-88
2024/01/07 12:24:59;;;;;;;;;;;15.50;40.00;;;;;;5051597;28;19918;-88
2024/01/07 12:27:25;;;;;;;;;;;13.70;44.20;;;;;;5028876;28;19926;-90
2024/01/07 12:29:58;;;;;;;;;;;12.60;49.60;;;;;;5024286;28;19957;-88
2024/01/07 12:32:27;;;;;;;;;;;12.10;51.20;;;;;;5023480;28;19924;-90
2024/01/07 12:34:53;;;;;;;;;;;11.00;54.10;;;;;;5030408;28;19937;-89
2024/01/07 12:37:18;;;;;;;;;;;10.50;58.00;;;;;;5026893;28;19948;-89
2024/01/07 12:39:44;;;;;;;;;;;10.30;62.20;;;;;;5022443;28;19929;-88
2024/01/07 12:42:09;;;;;;;;;;;10.20;65.00;;;;;;5026335;28;19929;-88
2024/01/07 12:44:36;;;;;;;;;;;9.90;62.10;;;;;;5028065;28;20038;-88
2024/01/07 12:47:03;;;;;;;;;;;9.70;64.00;;;;;;5024650;28;20017;-88
2024/01/07 12:49:28;;;;;;;;;;;9.20;70.00;;;;;;5028298;28;19936;-89
2024/01/07 12:51:54;;;;;;;;;;;9.10;77.40;;;;;;5033928;28;19941;-89
2024/01/07 12:54:20;;;;;;;;;;;8.80;76.30;;;;;;5030596;28;19932;-88
2024/01/07 12:56:46;;;;;;;;;;;8.80;82.20;;;;;;5030747;28;19953;-88
2024/01/07 12:59:11;;;;;;;;;;;8.80;78.50;;;;;;5027572;28;19928;-89
2024/01/07 13:01:37;;;;;;;;;;;8.70;80.80;;;;;;5026348;28;19936;-89
2024/01/07 13:04:03;;;;;;;;;;;8.40;79.40;;;;;;5033106;28;20353;-89
2024/01/07 13:06:28;;;;;;;;;;;8.00;85.80;;;;;;5035098;28;19933;-89
2024/01/07 13:08:54;;;;;;;;;;;7.90;86.30;;;;;;5033889;28;20084;-88
2024/01/07 13:11:20;;;;;;;;;;;7.90;88.60;;;;;;5032659;28;19930;-89
2024/01/07 13:13:46;;;;;;;;;;;7.70;96.30;;;;;;5033795;28;19927;-88
2024/01/07 13:16:12;;;;;;;;;;;7.60;90.40;;;;;;5031307;28;19937;-88
2024/01/07 13:18:37;;;;;;;;;;;7.60;90.60;;;;;;5030092;28;19928;-89
2024/01/07 13:21:03;;;;;;;;;;;7.50;93.30;;;;;;5033369;28;19931;-89
2024/01/07 13:23:29;;;;;;;;;;;7.50;93.00;;;;;;5032697;28;19938;-88
2024/01/07 13:25:56;;;;;;;;;;;7.60;94.40;;;;;;5029503;28;19977;-89
2024/01/07 13:28:21;;;;;;;;;;;7.50;92.80;;;;;;5030960;28;20118;-89
2024/01/07 13:30:47;;;;;;;;;;;7.40;90.50;;;;;;5027446;28;19975;-89
2024/01/07 13:33:13;;;;;;;;;;;7.20;91.80;;;;;;5031066;28;19938;-89
2024/01/07 13:35:38;;;;;;;;;;;7.10;93.70;;;;;;5035365;28;19958;-90
2024/01/07 13:38:04;;;;;;;;;;;6.90;93.90;;;;;;5030584;28;20032;-89
2024/01/07 13:40:29;;;;;;;;;;;6.80;95.40;;;;;;5033829;28;19959;-90
2024/01/07 13:42:55;;;;;;;;;;;6.80;96.60;;;;;;5033026;28;19932;-89
2024/01/07 13:45:22;;;;;;;;;;;6.90;97.30;;;;;;5030908;28;20393;-90
2024/01/07 13:47:48;;;;;;;;;;;6.80;98.50;;;;;;5028537;28;20410;-90
2024/01/07 13:50:13;;;;;;;;;;;6.90;98.00;;;;;;5042333;28;20004;-89
2024/01/07 13:52:39;;;;;;;;;;;6.90;99.60;;;;;;5044405;28;19968;-88
2024/01/07 13:55:05;;;;;;;;;;;6.90;94.70;;;;;;5041903;28;19933;-86
2024/01/07 13:57:30;;;;;;;;;;;7.00;95.70;;;;;;5042690;28;19939;-88
2024/01/07 13:59:56;;;;;;;;;;;6.90;98.40;;;;;;5040644;28;19929;-89
2024/01/07 14:02:22;;;;;;;;;;;6.90;97.40;;;;;;5037005;28;19931;-89
2024/01/07 14:04:48;;;;;;;;;;;6.90;99.40;;;;;;5029681;28;19932;-88
2024/01/07 14:07:13;;;;;;;;;;;6.60;96.80;;;;;;5030420;28;19935;-89
2024/01/07 14:09:39;;;;;;;;;;;6.50;99.90;;;;;;5032279;28;19933;-89
2024/01/07 14:12:04;;;;;;;;;;;6.50;99.90;;;;;;5027354;28;20025;-90
2024/01/07 14:14:30;;;;;;;;;;;6.50;99.90;;;;;;5030091;28;20323;-89
2024/01/07 14:16:55;;;;;;;;;;;6.50;97.60;;;;;;5039371;28;19953;-89
2024/01/07 14:19:21;;;;;;;;;;;6.40;99.90;;;;;;5045829;28;19949;-88